Time;durP1;ratioP1;P1;durP2;ratioP2;P2;SDS_P1;SDS_P2;PMS_P1;PMS_P2;Temp;Humidity;BMP_temperature;BMP_pressure;BME280_temperature;BME280_humidity;BME280_pressure;Samples;Min_cycle;Max_cycle;Signal;HPM_P1;HPM_P2
2022/10/06 00:01:56;;;;;;;0.10;0.10;;;;;;;14.57;100.00;101490.44;10359928;28;20405;-73
2022/10/06 00:06:56;;;;;;;0.10;0.10;;;;;;;14.54;100.00;101503.34;10359693;28;20022;-73
2022/10/06 00:11:56;;;;;;;0.10;0.10;;;;;;;14.49;100.00;101511.88;10357578;28;20104;-73
2022/10/06 00:16:57;;;;;;;0.10;0.10;;;;;;;14.41;100.00;101515.38;10365031;28;20033;-73
2022/10/06 00:21:57;;;;;;;0.10;0.10;;;;;;;14.33;100.00;101520.75;10366328;28;20025;-73
2022/10/06 00:26:57;;;;;;;0.10;0.10;;;;;;;14.26;100.00;101525.09;10356759;28;20123;-73
2022/10/06 00:31:58;;;;;;;0.10;0.10;;;;;;;14.20;100.00;101533.81;10367166;28;20280;-73
2022/10/06 00:36:58;;;;;;;0.10;0.10;;;;;;;14.14;100.00;101550.53;10366549;28;20022;-73
2022/10/06 00:41:58;;;;;;;0.10;0.10;;;;;;;14.05;100.00;101549.69;10359790;28;20202;-73
2022/10/06 00:46:59;;;;;;;0.00;0.00;;;;;;;13.99;100.00;101550.31;10336155;28;20023;-73
2022/10/06 00:52:07;;;;;;;0.00;0.00;;;;;;;13.87;100.00;101557.81;10356380;28;20050;-74
2022/10/06 00:57:08;;;;;;;0.10;0.10;;;;;;;13.72;100.00;101576.34;10336205;28;20487;-72
2022/10/06 01:02:19;;;;;;;0.10;0.10;;;;;;;13.58;100.00;101571.59;10362951;22;20124;-74
2022/10/06 01:07:21;;;;;;;0.10;0.10;;;;;;;13.45;100.00;101581.94;10357672;28;20057;-77
2022/10/06 01:12:23;;;;;;;0.10;0.10;;;;;;;13.33;100.00;101594.75;10326004;28;20432;-76
2022/10/06 01:17:33;;;;;;;0.00;0.00;;;;;;;13.23;100.00;101604.66;10327767;28;20072;-76
2022/10/06 01:22:38;;;;;;;0.10;0.10;;;;;;;13.13;100.00;101604.78;10361199;28;20038;-74
2022/10/06 01:27:42;;;;;;;0.05;0.05;;;;;;;13.06;100.00;101609.06;10366735;28;20014;-74
2022/10/06 01:32:44;;;;;;;0.00;0.00;;;;;;;12.94;100.00;101616.50;10363415;28;20495;-74
2022/10/06 01:37:44;;;;;;;0.00;0.00;;;;;;;12.90;100.00;101628.50;10366596;28;20026;-74
2022/10/06 01:42:45;;;;;;;0.10;0.10;;;;;;;12.82;100.00;101633.78;10364661;28;20029;-74
2022/10/06 01:47:46;;;;;;;0.10;0.10;;;;;;;12.76;100.00;101653.13;10360933;28;20056;-75
2022/10/06 01:52:46;;;;;;;0.00;0.00;;;;;;;12.69;100.00;101651.06;10360494;28;20362;-74
2022/10/06 01:57:47;;;;;;;0.10;0.10;;;;;;;12.66;100.00;101648.69;10364956;28;20496;-74
2022/10/06 02:02:47;;;;;;;0.00;0.00;;;;;;;12.66;100.00;101654.03;10365542;28;20022;-74
2022/10/06 02:07:47;;;;;;;0.10;0.10;;;;;;;12.70;100.00;101675.94;10364127;28;20018;-75
2022/10/06 02:12:51;;;;;;;0.05;0.05;;;;;;;12.80;100.00;101686.56;10373420;28;20026;-75
2022/10/06 02:17:53;;;;;;;0.10;0.10;;;;;;;12.82;100.00;101687.25;10335350;28;20405;-75
2022/10/06 02:22:53;;;;;;;0.10;0.10;;;;;;;12.75;100.00;101691.53;10367438;28;20128;-75
2022/10/06 02:27:54;;;;;;;0.10;0.10;;;;;;;12.76;100.00;101712.75;10372647;28;20021;-75
2022/10/06 02:32:54;;;;;;;0.10;0.10;;;;;;;12.75;100.00;101724.47;10372350;28;20477;-75
2022/10/06 02:37:55;;;;;;;0.10;0.10;;;;;;;12.71;100.00;101730.25;10366979;28;20025;-75
2022/10/06 02:42:55;;;;;;;0.00;0.00;;;;;;;12.63;100.00;101737.19;10332637;28;20022;-75
2022/10/06 02:47:55;;;;;;;0.10;0.10;;;;;;;12.55;100.00;101746.97;10337211;28;20025;-75
2022/10/06 02:52:56;;;;;;;0.10;0.10;;;;;;;12.53;100.00;101755.09;10366401;28;20052;-75
2022/10/06 02:57:56;;;;;;;0.10;0.10;;;;;;;12.49;100.00;101767.09;10371857;28;20583;-75
2022/10/06 03:02:57;;;;;;;0.10;0.10;;;;;;;12.42;100.00;101763.31;10370597;28;20113;-75
2022/10/06 03:07:58;;;;;;;0.10;0.10;;;;;;;12.37;100.00;101790.50;10371521;28;20014;-75
2022/10/06 03:12:58;;;;;;;0.10;0.10;;;;;;;12.29;100.00;101795.72;10363374;28;20389;-75
2022/10/06 03:17:58;;;;;;;0.10;0.10;;;;;;;12.19;100.00;101811.81;10332972;28;20544;-74
2022/10/06 03:22:59;;;;;;;0.10;0.10;;;;;;;12.09;100.00;101812.81;10364686;28;20463;-74
2022/10/06 03:27:59;;;;;;;0.10;0.10;;;;;;;12.02;100.00;101822.41;10369104;28;20025;-74
2022/10/06 03:33:00;;;;;;;0.10;0.10;;;;;;;11.92;100.00;101825.91;10369914;28;20261;-74
2022/10/06 03:38:00;;;;;;;0.10;0.10;;;;;;;11.79;100.00;101834.19;10369942;28;20291;-74
2022/10/06 03:43:01;;;;;;;0.00;0.00;;;;;;;11.75;100.00;101846.16;10369069;28;20100;-74
2022/10/06 03:48:01;;;;;;;0.10;0.10;;;;;;;11.73;100.00;101852.63;10362291;28;20055;-74
2022/10/06 03:53:01;;;;;;;0.10;0.10;;;;;;;11.66;100.00;101865.66;10360989;28;20030;-75
2022/10/06 03:58:02;;;;;;;0.10;0.10;;;;;;;11.57;100.00;101874.50;10347666;28;20018;-76
2022/10/06 04:03:02;;;;;;;0.10;0.10;;;;;;;11.56;100.00;101876.34;10316961;28;20034;-76
2022/10/06 04:08:02;;;;;;;0.10;0.10;;;;;;;11.54;100.00;101893.47;10331298;28;20641;-76
2022/10/06 04:13:02;;;;;;;0.10;0.10;;;;;;;11.51;100.00;101899.09;10341211;28;20061;-75
2022/10/06 04:18:03;;;;;;;0.00;0.00;;;;;;;11.50;100.00;101908.94;10346876;28;20025;-75
2022/10/06 04:23:04;;;;;;;0.10;0.10;;;;;;;11.43;100.00;101918.47;10357627;28;20544;-75
2022/10/06 04:28:04;;;;;;;0.00;0.00;;;;;;;11.39;100.00;101922.38;10341641;28;20053;-75
2022/10/06 04:33:06;;;;;;;0.10;0.10;;;;;;;11.39;100.00;101930.38;10334746;28;20109;-75
2022/10/06 04:38:06;;;;;;;0.10;0.10;;;;;;;11.34;100.00;101951.28;10341916;28;20029;-75
2022/10/06 04:43:07;;;;;;;0.10;0.10;;;;;;;11.28;100.00;101954.50;10362422;28;20018;-75
2022/10/06 04:48:07;;;;;;;0.10;0.10;;;;;;;11.22;100.00;101963.88;10361328;28;20025;-75
2022/10/06 04:53:07;;;;;;;0.10;0.10;;;;;;;11.20;100.00;101984.53;10363313;28;20026;-75
2022/10/06 04:58:08;;;;;;;0.10;0.10;;;;;;;11.16;100.00;101990.25;10362300;28;20025;-75
2022/10/06 05:03:08;;;;;;;0.10;0.10;;;;;;;11.15;100.00;102004.59;10364753;28;20026;-75
2022/10/06 05:08:09;;;;;;;0.00;0.00;;;;;;;11.13;100.00;102014.53;10355604;28;20017;-75
2022/10/06 05:13:10;;;;;;;0.00;0.00;;;;;;;11.08;100.00;102034.47;10356375;28;20041;-75
2022/10/06 05:18:11;;;;;;;0.10;0.10;;;;;;;11.06;100.00;102032.91;10335736;28;20029;-75
2022/10/06 05:23:11;;;;;;;0.10;0.10;;;;;;;10.99;100.00;102039.72;10364332;28;20026;-75
2022/10/06 05:28:11;;;;;;;0.10;0.10;;;;;;;10.94;100.00;102057.91;10361031;28;20152;-75
2022/10/06 05:33:11;;;;;;;0.10;0.10;;;;;;;10.88;100.00;102081.47;10352407;28;20033;-75
2022/10/06 05:38:12;;;;;;;0.10;0.10;;;;;;;10.87;100.00;102078.94;10362722;28;20112;-75
2022/10/06 05:43:12;;;;;;;0.10;0.10;;;;;;;10.96;100.00;102095.97;10354523;28;20048;-75
2022/10/06 05:48:12;;;;;;;0.10;0.10;;;;;;;11.17;100.00;102101.28;10368906;28;20026;-75
2022/10/06 05:53:12;;;;;;;0.00;0.00;;;;;;;11.50;100.00;102117.03;10362101;28;20026;-75
2022/10/06 05:58:13;;;;;;;0.10;0.10;;;;;;;11.67;100.00;102118.25;10369405;28;20040;-75
2022/10/06 06:03:13;;;;;;;0.10;0.10;;;;;;;12.09;100.00;102122.59;10366664;28;20025;-75
2022/10/06 06:08:14;;;;;;;0.10;0.10;;;;;;;12.74;100.00;102144.31;10356972;28;20025;-75
2022/10/06 06:13:21;;;;;;;0.10;0.10;;;;;;;13.47;100.00;102150.03;10359854;28;20018;-75
2022/10/06 06:18:21;;;;;;;0.10;0.10;;;;;;;14.28;100.00;102152.84;10354805;28;20026;-75
2022/10/06 06:23:22;;;;;;;0.10;0.10;;;;;;;15.07;100.00;102162.00;10363639;28;20034;-75
2022/10/06 06:28:22;;;;;;;0.10;0.10;;;;;;;15.55;100.00;102182.94;10370595;28;20060;-75
2022/10/06 06:33:23;;;;;;;0.00;0.00;;;;;;;16.02;100.00;102184.38;10366914;28;20022;-75
2022/10/06 06:38:23;;;;;;;0.10;0.10;;;;;;;16.53;100.00;102207.56;10359040;28;20265;-75
2022/10/06 06:43:23;;;;;;;0.10;0.10;;;;;;;17.03;100.00;102218.44;10360416;28;20442;-75
2022/10/06 06:48:24;;;;;;;0.10;0.10;;;;;;;17.45;100.00;102228.16;10361922;28;20128;-75
2022/10/06 06:53:24;;;;;;;0.00;0.00;;;;;;;17.77;100.00;102235.34;10357376;28;20484;-75
2022/10/06 06:58:25;;;;;;;0.07;0.07;;;;;;;18.07;100.00;102237.31;10363763;28;20026;-76
2022/10/06 07:03:25;;;;;;;0.10;0.10;;;;;;;18.43;100.00;102244.88;10347390;23;20047;-89
2022/10/06 07:08:25;;;;;;;0.00;0.00;;;;;;;19.04;100.00;102253.13;10300923;28;20478;-88
2022/10/06 07:13:25;;;;;;;0.00;0.00;;;;;;;19.24;100.00;102269.69;10312356;28;20034;-89
2022/10/06 07:29:08;;;;;;;0.00;0.00;;;;;;;20.02;100.00;102286.56;10310578;28;20105;-89
2022/10/06 07:34:09;;;;;;;0.00;0.00;;;;;;;19.89;100.00;102290.72;10310963;28;20462;-88
2022/10/06 07:39:09;;;;;;;0.10;0.10;;;;;;;20.00;100.00;102321.88;10296921;28;20025;-88
2022/10/06 07:44:09;;;;;;;0.00;0.00;;;;;;;19.75;100.00;102333.97;10296495;28;20490;-89
2022/10/06 07:49:09;;;;;;;0.00;0.00;;;;;;;19.92;100.00;102348.16;10299021;28;20022;-88
2022/10/06 07:54:10;;;;;;;0.00;0.00;;;;;;;20.24;100.00;102353.22;10312645;28;20029;-88
2022/10/06 07:59:10;;;;;;;0.10;0.10;;;;;;;20.27;100.00;102349.31;10302866;28;20022;-87
2022/10/06 08:04:11;;;;;;;0.10;0.10;;;;;;;20.37;100.00;102365.28;10311495;28;20034;-88
2022/10/06 08:09:12;;;;;;;0.10;0.10;;;;;;;20.23;88.17;102373.22;10314842;28;20487;-88
2022/10/06 08:14:13;;;;;;;0.10;0.10;;;;;;;20.10;86.61;102373.00;10289462;28;20030;-89
2022/10/06 08:19:16;;;;;;;0.10;0.10;;;;;;;20.01;86.47;102384.91;10288545;28;20026;-88
2022/10/06 08:24:18;;;;;;;;;;;;;;;20.10;88.53;102398.22;10296004;28;20015;-89
2022/10/06 08:29:18;;;;;;;0.00;0.00;;;;;;;20.19;89.02;102398.97;10313414;28;19937;-89
2022/10/06 08:34:20;;;;;;;0.00;0.00;;;;;;;20.29;87.30;102409.50;10292643;28;20022;-87
2022/10/06 08:39:20;;;;;;;0.10;0.10;;;;;;;20.19;85.05;102415.19;10313248;28;20018;-88
2022/10/06 08:44:43;;;;;;;0.00;0.00;;;;;;;20.20;90.46;102430.41;10293619;28;20031;-89
2022/10/06 08:49:49;;;;;;;0.10;0.10;;;;;;;19.87;86.84;102432.56;10299102;28;20034;-89
2022/10/06 08:55:05;;;;;;;0.10;0.10;;;;;;;19.88;89.00;102445.88;10295753;28;20109;-89
2022/10/06 09:05:28;;;;;;;0.10;0.10;;;;;;;19.21;90.26;102448.34;10455124;23;20049;-73
2022/10/06 09:10:28;;;;;;;;;;;;;;;19.22;92.89;102464.34;10451327;28;20296;-74
2022/10/06 09:15:33;;;;;;;0.10;0.10;;;;;;;19.27;92.22;102480.03;10449973;28;20329;-73
2022/10/06 09:20:42;;;;;;;0.00;0.00;;;;;;;19.22;92.84;102485.13;10451555;28;20086;-72
2022/10/06 09:25:43;;;;;;;0.00;0.00;;;;;;;18.88;93.41;102493.53;10456421;28;20468;-72
2022/10/06 09:30:44;;;;;;;0.10;0.10;;;;;;;18.60;93.07;102503.88;10454509;28;20016;-72
2022/10/06 09:36:08;;;;;;;0.00;0.00;;;;;;;18.38;92.66;102500.84;10449008;28;20024;-73
2022/10/06 09:41:10;;;;;;;0.10;0.10;;;;;;;18.37;92.70;102503.72;10455935;28;20049;-72
2022/10/06 09:46:27;;;;;;;0.00;0.00;;;;;;;18.28;94.66;102514.53;10457598;28;20024;-73
2022/10/06 09:51:32;;;;;;;0.10;0.10;;;;;;;18.23;93.53;102511.47;10456152;28;20368;-73
2022/10/06 09:56:35;;;;;;;0.10;0.10;;;;;;;18.17;95.74;102516.72;10453701;28;20029;-73
2022/10/06 10:01:35;;;;;;;0.10;0.10;;;;;;;17.99;96.42;102524.97;10456946;28;20086;-72
2022/10/06 10:06:35;;;;;;;0.10;0.10;;;;;;;17.90;96.91;102537.59;10456368;28;20541;-72
2022/10/06 10:16:54;;;;;;;0.10;0.10;;;;;;;17.80;95.73;102558.44;10456028;28;20111;-72
2022/10/06 10:21:55;;;;;;;0.00;0.00;;;;;;;18.01;95.81;102553.44;10453440;28;20112;-73
2022/10/06 10:27:04;;;;;;;0.10;0.10;;;;;;;18.13;93.68;102566.63;10456650;28;20025;-72
2022/10/06 10:32:15;;;;;;;0.00;0.00;;;;;;;17.95;93.34;102567.59;10455007;28;20017;-72
2022/10/06 10:37:23;;;;;;;0.00;0.00;;;;;;;17.82;95.47;102572.59;10455627;28;20506;-72
2022/10/06 10:42:36;;;;;;;0.10;0.10;;;;;;;17.88;97.39;102577.34;10453793;28;20388;-73
2022/10/06 10:47:41;;;;;;;0.10;0.10;;;;;;;18.07;94.38;102581.59;10452816;28;20487;-71
2022/10/06 10:52:45;;;;;;;0.10;0.10;;;;;;;18.00;93.69;102594.03;10452884;28;20104;-72
2022/10/06 10:57:49;;;;;;;0.10;0.10;;;;;;;17.98;93.87;102591.53;10452331;28;20025;-72
2022/10/06 11:02:52;;;;;;;0.10;0.10;;;;;;;17.92;92.88;102607.50;10454166;28;20040;-73
2022/10/06 11:07:52;;;;;;;;;;;;;;;17.62;90.88;102607.03;10436793;28;20048;-72
2022/10/06 11:12:53;;;;;;;0.00;0.00;;;;;;;17.14;92.67;102598.56;10455035;28;19915;-72
2022/10/06 11:18:06;;;;;;;0.10;0.10;;;;;;;17.03;94.79;102600.69;10453524;28;20025;-72
2022/10/06 11:23:32;;;;;;;0.10;0.10;;;;;;;16.93;96.11;102596.25;10453089;28;20025;-72
2022/10/06 11:28:52;;;;;;;0.10;0.10;;;;;;;16.62;96.44;102609.25;10453676;28;20286;-73
2022/10/06 11:33:57;;;;;;;0.10;0.10;;;;;;;16.65;99.60;102608.13;10434848;28;20021;-72
2022/10/06 11:39:05;;;;;;;0.00;0.00;;;;;;;17.04;100.00;102616.66;10453610;28;20037;-72
2022/10/06 11:44:33;;;;;;;0.10;0.10;;;;;;;17.44;98.07;102620.59;10451915;28;20020;-73
2022/10/06 11:49:54;;;;;;;0.00;0.00;;;;;;;17.27;93.88;102616.97;10453224;28;20365;-72
2022/10/06 11:55:07;;;;;;;0.03;0.03;;;;;;;16.93;97.80;102633.94;10451922;28;20075;-70
2022/10/06 12:00:07;;;;;;;0.00;0.00;;;;;;;16.96;94.63;102628.25;10447845;28;20025;-71
2022/10/06 12:05:10;;;;;;;0.00;0.00;;;;;;;17.04;95.71;102635.50;10433335;28;20021;-71
2022/10/06 12:10:26;;;;;;;0.10;0.10;;;;;;;17.07;93.25;102634.34;10452025;28;20251;-73
2022/10/06 12:16:02;;;;;;;0.10;0.10;;;;;;;17.15;96.11;102632.56;10449735;28;20207;-71
2022/10/06 12:21:29;;;;;;;0.10;0.10;;;;;;;17.16;96.79;102633.41;10420823;28;20066;-74
2022/10/06 12:26:48;;;;;;;0.00;0.00;;;;;;;16.94;91.56;102634.78;10451740;28;20017;-73
2022/10/06 12:31:54;;;;;;;0.10;0.10;;;;;;;16.88;93.57;102630.03;10449685;28;20043;-72
2022/10/06 12:37:32;;;;;;;0.10;0.10;;;;;;;16.88;93.42;102635.41;10450975;28;20368;-73
2022/10/06 12:42:32;;;;;;;0.10;0.10;;;;;;;16.89;92.35;102642.47;10449350;28;20051;-72
2022/10/06 12:47:39;;;;;;;0.10;0.10;;;;;;;16.92;92.32;102636.78;10450698;28;20451;-72
2022/10/06 12:52:48;;;;;;;0.10;0.10;;;;;;;17.05;91.69;102637.22;10449433;28;20102;-74
2022/10/06 12:57:51;;;;;;;0.00;0.00;;;;;;;17.12;91.10;102643.66;10450165;28;20119;-74
2022/10/06 13:02:56;;;;;;;0.00;0.00;;;;;;;17.04;93.48;102640.06;10416187;22;20057;-73
2022/10/06 13:08:02;;;;;;;0.00;0.00;;;;;;;17.06;91.34;102638.91;10328923;28;20050;-74
2022/10/06 13:13:19;;;;;;;0.00;0.00;;;;;;;16.97;88.35;102629.91;10328605;28;20029;-74
2022/10/06 13:18:21;;;;;;;0.10;0.10;;;;;;;16.68;91.18;102627.47;10328603;28;20103;-74
2022/10/06 13:23:24;;;;;;;0.00;0.00;;;;;;;16.56;94.93;102623.34;10328701;28;20362;-74
2022/10/06 13:28:35;;;;;;;0.00;0.00;;;;;;;16.51;95.07;102634.56;10328244;28;20022;-74
2022/10/06 13:33:41;;;;;;;0.00;0.00;;;;;;;16.39;93.29;102626.88;10328163;28;20269;-74
2022/10/06 13:38:41;;;;;;;0.10;0.10;;;;;;;16.34;94.61;102638.09;10327999;28;20026;-72
2022/10/06 13:43:47;;;;;;;0.00;0.00;;;;;;;16.27;90.73;102645.09;10327882;28;20038;-74
2022/10/06 13:48:52;;;;;;;0.00;0.00;;;;;;;16.22;91.04;102642.00;10328069;28;20389;-74
2022/10/06 13:53:53;;;;;;;0.10;0.10;;;;;;;16.18;89.74;102648.69;10327781;28;20034;-73
2022/10/06 13:58:53;;;;;;;0.10;0.10;;;;;;;15.94;90.97;102636.69;10327959;28;20034;-74
2022/10/06 14:04:17;;;;;;;0.10;0.10;;;;;;;15.77;90.09;102651.75;10328738;28;20218;-73
2022/10/06 14:09:22;;;;;;;;;;;;;;;15.75;93.84;102660.94;10335369;28;20360;-71
2022/10/06 14:14:23;;;;;;;0.10;0.10;;;;;;;15.78;92.73;102657.97;10333465;28;19944;-75
2022/10/06 14:19:35;;;;;;;0.10;0.10;;;;;;;15.75;93.01;102660.94;10351454;28;20048;-74
2022/10/06 14:24:36;;;;;;;0.10;0.10;;;;;;;15.69;93.24;102662.38;10343675;28;20014;-74
2022/10/06 14:29:36;;;;;;;0.00;0.00;;;;;;;15.63;93.73;102657.56;10362782;28;20033;-74
2022/10/06 14:34:37;;;;;;;0.10;0.10;;;;;;;15.58;93.88;102662.53;10349993;28;20026;-74
2022/10/06 14:39:38;;;;;;;0.10;0.10;;;;;;;15.53;94.21;102672.88;10360616;28;20057;-74
2022/10/06 14:44:39;;;;;;;0.10;0.10;;;;;;;15.47;93.37;102670.78;10352120;28;20050;-74
2022/10/06 14:49:39;;;;;;;0.10;0.10;;;;;;;15.43;95.20;102664.84;10356163;28;20485;-75
2022/10/06 14:54:41;;;;;;;0.10;0.10;;;;;;;15.37;98.44;102665.44;10365662;28;20032;-74
2022/10/06 14:59:41;;;;;;;0.10;0.10;;;;;;;15.24;97.50;102667.59;10335397;28;20026;-75
2022/10/06 15:04:42;;;;;;;0.10;0.10;;;;;;;15.16;96.27;102663.81;10343248;28;20133;-74
2022/10/06 15:09:42;;;;;;;0.10;0.10;;;;;;;15.11;96.93;102659.84;10343078;28;20385;-74
2022/10/06 15:14:43;;;;;;;0.00;0.00;;;;;;;15.09;100.00;102667.19;10359046;28;20029;-74
2022/10/06 15:19:43;;;;;;;0.00;0.00;;;;;;;14.99;99.94;102661.00;10356740;28;20125;-74
2022/10/06 15:24:47;;;;;;;0.10;0.10;;;;;;;14.90;100.00;102663.56;10348715;28;20022;-74
2022/10/06 15:29:47;;;;;;;0.10;0.10;;;;;;;14.79;100.00;102668.22;10357337;28;20022;-74
2022/10/06 15:34:49;;;;;;;0.10;0.10;;;;;;;14.70;100.00;102662.72;10350000;28;20034;-74
2022/10/06 15:39:51;;;;;;;0.10;0.10;;;;;;;14.62;100.00;102657.22;10347540;28;20126;-74
2022/10/06 15:44:51;;;;;;;0.10;0.10;;;;;;;14.50;100.00;102669.88;10354031;28;20029;-74
2022/10/06 15:49:51;;;;;;;0.10;0.10;;;;;;;14.43;100.00;102679.47;10350549;28;20030;-74
2022/10/06 15:54:51;;;;;;;0.10;0.10;;;;;;;14.31;100.00;102669.88;10338801;28;20034;-74
2022/10/06 15:59:52;;;;;;;0.10;0.10;;;;;;;14.22;100.00;102678.72;10346699;28;20080;-73
2022/10/06 16:09:53;;;;;;;0.10;0.10;;;;;;;13.93;100.00;102674.16;10357544;28;20034;-73
2022/10/06 16:14:53;;;;;;;0.10;0.10;;;;;;;13.83;100.00;102673.25;10340635;28;20030;-73
2022/10/06 16:19:53;;;;;;;0.10;0.10;;;;;;;13.69;100.00;102685.19;10362302;28;20108;-72
2022/10/06 16:24:53;;;;;;;0.10;0.10;;;;;;;13.56;100.00;102681.91;10354334;28;20253;-74
2022/10/06 16:29:54;;;;;;;0.10;0.10;;;;;;;13.43;100.00;102686.59;10361112;28;20513;-73
2022/10/06 16:34:54;;;;;;;0.10;0.10;;;;;;;13.27;100.00;102689.78;10340241;28;20022;-74
2022/10/06 16:39:54;;;;;;;0.10;0.10;;;;;;;13.06;100.00;102687.91;10347646;28;20104;-74
2022/10/06 16:44:54;;;;;;;0.10;0.10;;;;;;;12.87;100.00;102693.09;10358452;28;20033;-74
2022/10/06 16:49:55;;;;;;;0.10;0.10;;;;;;;12.62;100.00;102703.19;10351927;28;20117;-74
2022/10/06 16:54:56;;;;;;;0.10;0.10;;;;;;;12.41;100.00;102702.25;10346736;28;20030;-74
2022/10/06 16:59:56;;;;;;;0.10;0.10;;;;;;;12.30;100.00;102715.63;10353244;28;20030;-73
2022/10/06 17:04:56;;;;;;;0.10;0.10;;;;;;;12.17;100.00;102715.78;10360288;28;20029;-73
2022/10/06 17:09:57;;;;;;;0.10;0.10;;;;;;;12.02;100.00;102719.69;10347153;28;20033;-73
2022/10/06 17:14:57;;;;;;;0.10;0.10;;;;;;;11.89;100.00;102717.97;10357641;28;20021;-74
2022/10/06 17:19:57;;;;;;;0.10;0.10;;;;;;;11.79;100.00;102715.16;10354451;28;20025;-73
2022/10/06 17:24:59;;;;;;;0.10;0.10;;;;;;;11.63;100.00;102725.34;10336294;28;20026;-72
2022/10/06 17:29:59;;;;;;;0.10;0.10;;;;;;;11.48;100.00;102726.53;10336627;28;20668;-74
2022/10/06 17:35:00;;;;;;;0.10;0.10;;;;;;;11.38;100.00;102714.91;10354712;28;20022;-74
2022/10/06 17:40:00;;;;;;;0.10;0.10;;;;;;;11.36;100.00;102719.50;10346319;28;20018;-74
2022/10/06 17:45:00;;;;;;;0.10;0.10;;;;;;;11.26;100.00;102722.03;10349610;28;20015;-74
2022/10/06 17:50:01;;;;;;;0.03;0.03;;;;;;;11.12;100.00;102723.06;10343797;28;20097;-74
2022/10/06 17:55:01;;;;;;;0.10;0.10;;;;;;;11.00;100.00;102730.19;10354185;28;20025;-74
2022/10/06 18:00:03;;;;;;;0.10;0.10;;;;;;;10.85;100.00;102718.84;10348926;28;20212;-74
2022/10/06 18:05:04;;;;;;;0.10;0.10;;;;;;;10.72;100.00;102734.03;10353875;28;20027;-74
2022/10/06 18:15:24;;;;;;;0.00;0.00;;;;;;;10.45;100.00;102725.44;10357326;28;20029;-74
2022/10/06 18:20:28;;;;;;;0.10;0.10;;;;;;;10.35;100.00;102728.72;10364762;28;20022;-74
2022/10/06 18:25:29;;;;;;;0.10;0.10;;;;;;;10.26;100.00;102732.03;10354611;28;20018;-74
2022/10/06 18:30:30;;;;;;;0.10;0.10;;;;;;;10.14;100.00;102723.13;10356812;28;20034;-73
2022/10/06 18:35:31;;;;;;;0.10;0.10;;;;;;;10.06;100.00;102721.97;10358409;28;20025;-73
2022/10/06 18:40:31;;;;;;;0.10;0.10;;;;;;;9.98;100.00;102718.03;10341956;28;20026;-74
2022/10/06 18:51:01;;;;;;;0.10;0.10;;;;;;;9.80;100.00;102729.97;10370980;28;20022;-74
2022/10/06 18:56:01;;;;;;;0.00;0.00;;;;;;;9.73;100.00;102729.56;10349168;28;20092;-73
2022/10/06 19:01:05;;;;;;;0.10;0.10;;;;;;;9.68;100.00;102739.66;10344248;28;20672;-74
2022/10/06 19:06:06;;;;;;;;;;;;;;;9.65;100.00;102737.22;10359212;28;20040;-72
2022/10/06 19:16:25;;;;;;;0.00;0.00;;;;;;;9.58;100.00;102737.78;10365443;28;20038;-74
2022/10/06 19:21:26;;;;;;;0.00;0.00;;;;;;;9.51;100.00;102732.88;10356667;28;20017;-73
2022/10/06 19:26:26;;;;;;;0.00;0.00;;;;;;;9.46;100.00;102742.97;10358217;28;20019;-73
2022/10/06 19:31:27;;;;;;;0.10;0.10;;;;;;;9.39;100.00;102751.47;10334399;28;20189;-75
2022/10/06 19:36:28;;;;;;;0.10;0.10;;;;;;;9.34;100.00;102753.56;10353804;28;20712;-75
2022/10/06 19:46:48;;;;;;;0.10;0.10;;;;;;;9.27;100.00;102758.47;10350831;28;20023;-75
2022/10/06 19:51:49;;;;;;;0.00;0.00;;;;;;;9.27;100.00;102755.81;10347496;28;20017;-74
2022/10/06 19:56:49;;;;;;;0.10;0.10;;;;;;;9.25;100.00;102753.28;10359498;28;20022;-75
2022/10/06 20:01:51;;;;;;;0.05;0.05;;;;;;;9.20;100.00;102751.88;10333871;28;20100;-75
2022/10/06 20:06:51;;;;;;;0.03;0.03;;;;;;;9.20;100.00;102757.19;10335405;28;20032;-74
2022/10/06 20:11:52;;;;;;;0.00;0.00;;;;;;;9.16;100.00;102755.66;10339705;28;20044;-75
2022/10/06 20:16:54;;;;;;;0.00;0.00;;;;;;;9.15;100.00;102753.97;10358980;28;20042;-74
2022/10/06 20:21:54;;;;;;;0.00;0.00;;;;;;;9.15;100.00;102749.50;10352865;28;20061;-74
2022/10/06 20:26:54;;;;;;;0.10;0.10;;;;;;;9.15;100.00;102759.28;10345760;28;20026;-74
2022/10/06 20:31:57;;;;;;;0.00;0.00;;;;;;;9.18;100.00;102756.44;10354015;28;20022;-74
2022/10/06 20:36:58;;;;;;;0.10;0.10;;;;;;;9.15;100.00;102762.81;10362177;28;20469;-75
2022/10/06 20:41:59;;;;;;;0.00;0.00;;;;;;;9.09;100.00;102755.25;10359402;28;20026;-74
2022/10/06 20:46:59;;;;;;;0.00;0.00;;;;;;;9.05;100.00;102753.75;10361782;28;20072;-74
2022/10/06 20:52:01;;;;;;;0.00;0.00;;;;;;;9.00;100.00;102754.03;10331478;28;20367;-71
2022/10/06 20:57:04;;;;;;;0.00;0.00;;;;;;;8.98;100.00;102757.75;10341865;28;20049;-72
2022/10/06 21:02:05;;;;;;;0.00;0.00;;;;;;;8.95;100.00;102748.19;10337989;28;20030;-73
2022/10/06 21:07:06;;;;;;;0.10;0.10;;;;;;;8.94;100.00;102743.81;10346777;28;20018;-72
2022/10/06 21:12:06;;;;;;;0.00;0.00;;;;;;;8.92;100.00;102745.72;10354686;28;20089;-73
2022/10/06 21:17:07;;;;;;;0.10;0.10;;;;;;;8.92;100.00;102737.75;10353049;28;20022;-72
2022/10/06 21:22:07;;;;;;;0.08;0.08;;;;;;;8.97;100.00;102733.00;10344558;28;20536;-72
2022/10/06 21:27:07;;;;;;;0.00;0.00;;;;;;;9.04;100.00;102722.78;10337352;28;20029;-72
2022/10/06 21:32:08;;;;;;;0.00;0.00;;;;;;;9.08;100.00;102732.28;10350362;28;20431;-72
2022/10/06 21:37:09;;;;;;;0.00;0.00;;;;;;;9.05;100.00;102730.69;10338022;28;20473;-72
2022/10/06 21:42:09;;;;;;;0.00;0.00;;;;;;;9.05;100.00;102728.00;10351739;28;20386;-72
2022/10/06 21:47:10;;;;;;;0.10;0.10;;;;;;;9.04;100.00;102730.75;10355223;28;20013;-72
2022/10/06 21:52:10;;;;;;;0.00;0.00;;;;;;;9.00;100.00;102716.00;10338257;28;20026;-72
2022/10/06 21:57:14;;;;;;;0.00;0.00;;;;;;;9.02;100.00;102706.97;10339885;28;20015;-72
2022/10/06 22:02:14;;;;;;;0.00;0.00;;;;;;;9.04;100.00;102714.81;10347708;28;20037;-72
2022/10/06 22:07:14;;;;;;;0.00;0.00;;;;;;;9.10;100.00;102710.88;10345717;28;20381;-72
2022/10/06 22:12:15;;;;;;;0.00;0.00;;;;;;;9.14;100.00;102707.09;10344619;28;20025;-72
2022/10/06 22:17:15;;;;;;;0.00;0.00;;;;;;;9.19;100.00;102708.47;10350257;28;20102;-72
2022/10/06 22:22:15;;;;;;;0.00;0.00;;;;;;;9.18;100.00;102713.88;10338773;28;20411;-72
2022/10/06 22:27:15;;;;;;;0.10;0.10;;;;;;;9.10;100.00;102702.91;10355175;28;20365;-72
2022/10/06 22:32:16;;;;;;;0.00;0.00;;;;;;;9.05;100.00;102701.44;10362477;28;20437;-72
2022/10/06 22:37:17;;;;;;;0.00;0.00;;;;;;;9.00;100.00;102697.38;10349112;28;20080;-72
2022/10/06 22:42:17;;;;;;;0.03;0.03;;;;;;;8.91;100.00;102695.34;10345974;28;20137;-72
2022/10/06 22:47:17;;;;;;;0.10;0.10;;;;;;;8.78;100.00;102697.94;10343581;28;20477;-72
2022/10/06 22:52:18;;;;;;;0.10;0.10;;;;;;;8.72;100.00;102690.38;10353192;28;20082;-72
2022/10/06 22:57:18;;;;;;;0.10;0.10;;;;;;;8.62;100.00;102687.50;10360625;28;20026;-72
2022/10/06 23:02:18;;;;;;;0.00;0.00;;;;;;;8.51;100.00;102685.53;10356168;28;20049;-72
2022/10/06 23:07:19;;;;;;;0.00;0.00;;;;;;;8.37;100.00;102682.88;10356447;28;20017;-72
2022/10/06 23:12:19;;;;;;;0.00;0.00;;;;;;;8.23;100.00;102672.31;10351709;28;20266;-72
2022/10/06 23:17:19;;;;;;;0.00;0.00;;;;;;;8.21;100.00;102674.22;10352371;28;20034;-72
2022/10/06 23:22:20;;;;;;;0.00;0.00;;;;;;;8.15;100.00;102663.03;10355924;28;20022;-72
2022/10/06 23:27:20;;;;;;;0.00;0.00;;;;;;;8.03;100.00;102658.53;10355138;28;20365;-72
2022/10/06 23:32:20;;;;;;;0.00;0.00;;;;;;;7.89;100.00;102658.53;10347543;28;20026;-72
2022/10/06 23:37:20;;;;;;;0.00;0.00;;;;;;;7.80;100.00;102654.66;10348595;28;20084;-72
2022/10/06 23:42:21;;;;;;;0.03;0.03;;;;;;;7.75;100.00;102655.91;10351921;28;20018;-72
2022/10/06 23:47:21;;;;;;;0.00;0.00;;;;;;;7.70;100.00;102642.91;10355002;28;20021;-72
2022/10/06 23:52:22;;;;;;;0.00;0.00;;;;;;;7.64;100.00;102638.84;10355435;28;20474;-71